createdAt,value
2022-12-18T00:01:07.319Z,13.10
2022-12-18T00:03:37.487Z,13.40
2022-12-18T00:06:07.204Z,13.63
2022-12-18T00:08:33.754Z,12.52
2022-12-18T00:11:18.181Z,13.07
2022-12-18T00:13:45.257Z,13.20
2022-12-18T00:16:14.838Z,14.18
2022-12-18T00:18:42.598Z,12.05
2022-12-18T00:21:11.388Z,13.65
2022-12-18T00:23:39.007Z,13.43
2022-12-18T00:26:08.580Z,12.50
2022-12-18T00:28:35.025Z,12.88
2022-12-18T00:31:06.444Z,13.60
2022-12-18T00:33:33.729Z,12.82
2022-12-18T00:36:10.073Z,13.07
2022-12-18T00:38:37.334Z,13.37
2022-12-18T00:41:04.778Z,13.32
2022-12-18T00:43:31.364Z,12.88
2022-12-18T00:45:58.055Z,14.40
2022-12-18T00:48:24.506Z,13.57
2022-12-18T00:50:51.449Z,14.17
2022-12-18T00:53:18.383Z,14.02
2022-12-18T00:55:46.287Z,14.77
2022-12-18T00:58:14.704Z,14.23
2022-12-18T01:00:41.885Z,13.85
2022-12-18T01:03:08.595Z,13.43
2022-12-18T01:05:35.356Z,14.27
2022-12-18T01:08:01.849Z,13.38
2022-12-18T01:10:28.311Z,15.23
2022-12-18T01:12:54.693Z,13.95
2022-12-18T01:15:21.512Z,14.37
2022-12-18T01:17:47.936Z,13.35
2022-12-18T01:20:15.074Z,13.68
2022-12-18T01:22:41.607Z,14.00
2022-12-18T01:25:09.679Z,13.85
2022-12-18T01:27:36.497Z,14.23
2022-12-18T01:30:04.099Z,13.93
2022-12-18T01:32:32.644Z,14.90
2022-12-18T01:34:59.321Z,14.05
2022-12-18T01:37:26.113Z,14.32
2022-12-18T01:39:55.391Z,13.57
2022-12-18T01:42:24.578Z,13.90
2022-12-18T01:45:03.778Z,15.68
2022-12-18T01:47:30.420Z,13.95
2022-12-18T01:50:00.548Z,13.60
2022-12-18T01:52:33.887Z,12.73
2022-12-18T01:55:02.663Z,13.80
2022-12-18T01:57:29.411Z,13.10
2022-12-18T02:00:01.888Z,13.00
2022-12-18T02:02:30.088Z,14.32
2022-12-18T02:04:56.858Z,13.50
2022-12-18T02:07:41.559Z,12.85
2022-12-18T02:10:19.833Z,14.55
2022-12-18T02:12:52.170Z,14.10
2022-12-18T02:15:32.718Z,13.50
2022-12-18T02:18:09.963Z,14.27
2022-12-18T02:20:42.623Z,14.48
2022-12-18T02:23:18.422Z,13.95
2022-12-18T02:26:07.158Z,13.85
2022-12-18T02:28:41.130Z,13.32
2022-12-18T02:31:11.545Z,13.80
2022-12-18T02:33:40.574Z,13.70
2022-12-18T02:36:09.698Z,13.38
2022-12-18T02:38:37.303Z,12.85
2022-12-18T02:41:05.431Z,13.10
2022-12-18T02:43:32.046Z,13.73
2022-12-18T02:46:01.788Z,12.60
2022-12-18T02:48:35.178Z,13.63
2022-12-18T02:51:09.324Z,13.27
2022-12-18T02:53:46.279Z,13.23
2022-12-18T02:56:18.622Z,13.63
2022-12-18T02:58:45.011Z,12.55
2022-12-18T03:01:25.906Z,13.93
2022-12-18T03:04:05.260Z,13.35
2022-12-18T03:06:38.615Z,13.73
2022-12-18T03:09:17.629Z,13.07
2022-12-18T03:12:08.646Z,12.30
2022-12-18T03:14:39.059Z,13.52
2022-12-18T03:17:11.920Z,12.43
2022-12-18T03:19:40.368Z,12.38
2022-12-18T03:22:08.603Z,13.40
2022-12-18T03:24:39.989Z,12.90
2022-12-18T03:27:12.849Z,12.70
2022-12-18T03:29:43.747Z,12.82
2022-12-18T03:32:24.683Z,12.55
2022-12-18T03:34:52.971Z,11.30
2022-12-18T03:37:19.599Z,12.50
2022-12-18T03:39:46.300Z,12.77
2022-12-18T03:42:31.034Z,12.00
2022-12-18T03:45:09.901Z,12.77
2022-12-18T03:47:45.754Z,12.30
2022-12-18T03:50:12.999Z,12.82
2022-12-18T03:52:50.024Z,12.45
2022-12-18T03:55:19.697Z,12.15
2022-12-18T03:57:48.585Z,12.23
2022-12-18T04:00:18.000Z,12.07
2022-12-18T04:02:49.460Z,11.18
2022-12-18T04:05:17.778Z,12.45
2022-12-18T04:07:46.158Z,12.55
2022-12-18T04:10:13.770Z,12.25
2022-12-18T04:12:40.319Z,12.13
2022-12-18T04:15:08.068Z,11.73
2022-12-18T04:17:34.568Z,12.60
2022-12-18T04:20:01.154Z,11.73
2022-12-18T04:22:27.761Z,10.75
2022-12-18T04:24:54.413Z,11.23
2022-12-18T04:27:21.154Z,11.32
2022-12-18T04:29:47.940Z,11.70
2022-12-18T04:32:14.555Z,11.45
2022-12-18T04:34:41.011Z,10.82
2022-12-18T04:37:07.638Z,11.70
2022-12-18T04:39:34.215Z,10.57
2022-12-18T04:42:00.858Z,11.15
2022-12-18T04:44:27.473Z,10.68
2022-12-18T04:46:54.046Z,10.82
2022-12-18T04:49:21.126Z,9.60
2022-12-18T04:51:48.071Z,11.23
2022-12-18T04:54:14.550Z,11.05
2022-12-18T04:56:41.225Z,10.32
2022-12-18T04:59:07.814Z,10.93
2022-12-18T05:01:35.167Z,10.07
2022-12-18T05:04:02.809Z,10.98
2022-12-18T05:06:29.744Z,10.55
2022-12-18T05:08:56.444Z,9.63
2022-12-18T05:11:25.389Z,9.55
2022-12-18T05:13:51.897Z,8.83
2022-12-18T05:16:20.819Z,10.10
2022-12-18T05:18:47.717Z,9.45
2022-12-18T05:21:14.430Z,10.60
2022-12-18T05:23:41.457Z,9.13
2022-12-18T05:26:08.873Z,8.40
2022-12-18T05:28:37.397Z,8.93
2022-12-18T05:31:05.944Z,9.00
2022-12-18T05:33:34.663Z,9.85
2022-12-18T05:36:03.027Z,8.93
2022-12-18T05:38:31.339Z,8.67
2022-12-18T05:40:58.669Z,8.40
2022-12-18T05:43:26.451Z,8.85
2022-12-18T05:45:54.047Z,8.27
2022-12-18T05:48:21.184Z,9.30
2022-12-18T05:50:49.168Z,8.37
2022-12-18T05:53:23.436Z,7.32
2022-12-18T05:55:49.950Z,8.73
2022-12-18T05:58:19.869Z,7.65
2022-12-18T06:00:47.020Z,8.68
2022-12-18T06:03:15.154Z,8.93
2022-12-18T06:05:48.334Z,7.82
2022-12-18T06:08:17.336Z,7.90
2022-12-18T06:10:52.289Z,8.18
2022-12-18T06:13:18.813Z,8.70
2022-12-18T06:15:45.447Z,8.40
2022-12-18T06:18:12.047Z,7.13
2022-12-18T06:20:40.713Z,7.75
2022-12-18T06:23:07.366Z,7.90
2022-12-18T06:25:37.949Z,8.32
2022-12-18T06:28:04.662Z,8.23
2022-12-18T06:30:31.825Z,8.25
2022-12-18T06:33:01.533Z,7.70
2022-12-18T06:35:28.137Z,8.48
2022-12-18T06:37:54.724Z,8.73
2022-12-18T06:40:21.539Z,8.27
2022-12-18T06:42:50.435Z,8.10
2022-12-18T06:45:17.537Z,7.82
2022-12-18T06:47:47.200Z,7.90
2022-12-18T06:50:14.103Z,7.80
2022-12-18T06:52:41.502Z,7.97
2022-12-18T06:55:10.405Z,8.18
2022-12-18T06:57:37.680Z,7.75
2022-12-18T07:00:06.359Z,7.85
2022-12-18T07:02:33.392Z,7.13
2022-12-18T07:05:00.269Z,7.73
2022-12-18T07:07:26.950Z,7.40
2022-12-18T07:09:53.542Z,9.35
2022-12-18T07:12:20.026Z,7.30
2022-12-18T07:14:46.728Z,7.38
2022-12-18T07:17:13.409Z,7.63
2022-12-18T07:19:40.033Z,7.53
2022-12-18T07:22:09.376Z,8.23
2022-12-18T07:24:36.123Z,7.28
2022-12-18T07:27:05.597Z,7.85
2022-12-18T07:29:36.787Z,7.90
2022-12-18T07:32:06.380Z,7.95
2022-12-18T07:34:33.108Z,7.60
2022-12-18T07:36:59.877Z,7.80
2022-12-18T07:39:26.805Z,8.00
2022-12-18T07:42:14.580Z,6.90
2022-12-18T07:44:41.177Z,7.93
2022-12-18T07:47:11.995Z,7.68
2022-12-18T07:49:39.116Z,8.07
2022-12-18T07:52:05.646Z,8.77
2022-12-18T07:54:32.188Z,8.07
2022-12-18T07:56:58.745Z,7.65
2022-12-18T07:59:25.350Z,8.23
2022-12-18T08:01:51.957Z,7.95
2022-12-18T08:04:18.728Z,7.78
2022-12-18T08:06:47.917Z,8.10
2022-12-18T08:09:20.284Z,7.43
2022-12-18T08:11:46.901Z,8.43
2022-12-18T08:14:13.536Z,8.30
2022-12-18T08:16:40.518Z,8.18
2022-12-18T08:19:07.099Z,8.30
2022-12-18T08:21:33.706Z,8.18
2022-12-18T08:24:02.396Z,8.55
2022-12-18T08:26:34.736Z,8.13
2022-12-18T08:29:02.089Z,8.05
2022-12-18T08:31:30.776Z,8.00
2022-12-18T08:33:59.939Z,8.43
2022-12-18T08:36:29.280Z,8.27
2022-12-18T08:39:01.282Z,8.30
2022-12-18T08:41:27.884Z,8.27
2022-12-18T08:44:14.159Z,7.43
2022-12-18T08:46:43.172Z,7.57
2022-12-18T08:49:11.333Z,8.32
2022-12-18T08:51:38.747Z,8.13
2022-12-18T08:54:06.849Z,7.93
2022-12-18T08:56:36.185Z,6.93
2022-12-18T08:59:02.980Z,7.40
2022-12-18T09:01:29.760Z,7.53
2022-12-18T09:03:58.085Z,7.88
2022-12-18T09:06:25.231Z,6.80
2022-12-18T09:08:51.882Z,8.03
2022-12-18T09:11:26.272Z,7.55
2022-12-18T09:13:53.923Z,7.55
2022-12-18T09:16:25.021Z,7.93
2022-12-18T09:19:08.305Z,7.15
2022-12-18T09:21:43.364Z,8.33
2022-12-18T09:24:14.470Z,6.78
2022-12-18T09:26:47.672Z,6.97
2022-12-18T09:29:15.665Z,7.05
2022-12-18T09:31:43.465Z,7.82
2022-12-18T09:34:10.036Z,7.30
2022-12-18T09:36:38.767Z,7.75
2022-12-18T09:39:08.581Z,6.97
2022-12-18T09:41:57.248Z,7.63
2022-12-18T09:44:34.402Z,7.07
2022-12-18T09:47:41.383Z,6.20
2022-12-18T09:50:31.709Z,6.53
2022-12-18T09:53:03.955Z,6.82
2022-12-18T09:55:38.362Z,6.80
2022-12-18T09:58:16.729Z,6.65
2022-12-18T10:00:43.865Z,7.20
2022-12-18T10:03:15.260Z,6.85
2022-12-18T10:06:03.015Z,6.95
2022-12-18T10:08:53.001Z,6.55
2022-12-18T10:11:25.874Z,6.47
2022-12-18T10:14:04.840Z,6.20
2022-12-18T10:16:44.236Z,6.07
2022-12-18T10:19:29.397Z,6.50
2022-12-18T10:22:26.249Z,6.32
2022-12-18T10:25:25.853Z,6.55
2022-12-18T10:28:14.007Z,6.13
2022-12-18T10:30:42.474Z,6.53
2022-12-18T10:33:22.298Z,5.95
2022-12-18T10:35:56.897Z,6.22
2022-12-18T10:38:24.919Z,5.95
2022-12-18T10:40:57.504Z,5.80
2022-12-18T10:43:38.393Z,6.47
2022-12-18T10:46:11.036Z,5.72
2022-12-18T10:48:47.747Z,5.88
2022-12-18T10:51:31.718Z,6.00
2022-12-18T10:54:23.174Z,6.00
2022-12-18T10:56:52.839Z,6.20
2022-12-18T10:59:19.855Z,6.68
2022-12-18T11:02:02.079Z,5.90
2022-12-18T11:04:32.189Z,5.45
2022-12-18T11:07:11.726Z,5.77
2022-12-18T11:09:42.767Z,5.60
2022-12-18T11:12:26.347Z,6.38
2022-12-18T11:14:54.827Z,5.82
2022-12-18T11:17:34.688Z,6.05
2022-12-18T11:20:08.011Z,5.50
2022-12-18T11:22:39.141Z,5.90
2022-12-18T11:25:35.456Z,5.45
2022-12-18T11:28:26.639Z,6.18
2022-12-18T11:31:24.143Z,5.60
2022-12-18T11:34:31.305Z,5.87
2022-12-18T11:37:05.418Z,5.07
2022-12-18T11:39:43.959Z,6.32
2022-12-18T11:42:27.641Z,5.60
2022-12-18T11:45:09.784Z,5.03
2022-12-18T11:48:16.052Z,5.53
2022-12-18T11:50:56.526Z,5.07
2022-12-18T11:53:27.367Z,6.18
2022-12-18T11:56:25.921Z,5.18
2022-12-18T11:59:15.694Z,5.43
2022-12-18T12:02:13.309Z,5.27
2022-12-18T12:04:49.554Z,5.00
2022-12-18T12:07:43.897Z,5.53
2022-12-18T12:10:10.332Z,5.25
2022-12-18T12:12:58.663Z,5.72
2022-12-18T12:15:50.667Z,5.50
2022-12-18T12:18:42.775Z,5.63
2022-12-18T12:21:40.382Z,5.30
2022-12-18T12:24:32.555Z,5.30
2022-12-18T12:27:37.023Z,5.40
2022-12-18T12:30:10.274Z,5.37
2022-12-18T12:33:00.206Z,6.32
2022-12-18T12:35:32.855Z,5.72
2022-12-18T12:38:08.977Z,5.70
2022-12-18T12:40:58.833Z,5.95
2022-12-18T12:43:52.806Z,5.60
2022-12-18T12:46:25.828Z,5.88
2022-12-18T12:49:10.777Z,5.70
2022-12-18T12:51:44.651Z,5.97
2022-12-18T12:54:18.736Z,6.40
2022-12-18T12:57:05.001Z,5.17
2022-12-18T12:59:50.527Z,5.90
2022-12-18T13:02:36.975Z,6.15
2022-12-18T13:05:12.938Z,5.28
2022-12-18T13:07:47.570Z,5.93
2022-12-18T13:10:28.685Z,5.70
2022-12-18T13:13:09.364Z,6.10
2022-12-18T13:15:48.586Z,6.20
2022-12-18T13:18:19.137Z,6.13
2022-12-18T13:20:53.657Z,5.72
2022-12-18T13:23:27.045Z,4.97
2022-12-18T13:26:26.438Z,5.47
2022-12-18T13:28:59.795Z,5.65
2022-12-18T13:31:58.081Z,6.00
2022-12-18T13:34:31.774Z,5.20
2022-12-18T13:37:40.578Z,6.30
2022-12-18T13:40:41.128Z,6.13
2022-12-18T13:43:19.998Z,6.13
2022-12-18T13:46:00.212Z,6.50
2022-12-18T13:48:28.695Z,6.40
2022-12-18T13:51:04.432Z,6.03
2022-12-18T13:53:35.306Z,5.57
2022-12-18T13:56:03.294Z,5.80
2022-12-18T13:58:30.189Z,5.97
2022-12-18T14:01:00.527Z,6.07
2022-12-18T14:03:29.606Z,6.87
2022-12-18T14:06:01.575Z,6.32
2022-12-18T14:08:34.881Z,5.60
2022-12-18T14:11:05.102Z,6.50
2022-12-18T14:13:36.670Z,6.28
2022-12-18T14:16:06.041Z,6.17
2022-12-18T14:18:57.106Z,6.07
2022-12-18T14:21:35.049Z,6.15
2022-12-18T14:24:20.036Z,5.90
2022-12-18T14:26:48.406Z,7.05
2022-12-18T14:29:32.918Z,6.37
2022-12-18T14:32:35.636Z,6.30
2022-12-18T14:35:14.362Z,6.05
2022-12-18T14:37:41.030Z,6.82
2022-12-18T14:40:14.219Z,5.97
2022-12-18T14:42:40.970Z,6.30
2022-12-18T14:45:41.499Z,6.40
2022-12-18T14:48:10.500Z,6.90
2022-12-18T14:50:39.347Z,5.75
2022-12-18T14:53:24.119Z,6.38
2022-12-18T14:55:51.804Z,6.23
2022-12-18T14:58:19.666Z,5.93
2022-12-18T15:00:46.536Z,6.18
2022-12-18T15:03:20.422Z,6.63
2022-12-18T15:05:49.970Z,6.72
2022-12-18T15:08:33.979Z,6.73
2022-12-18T15:11:01.287Z,5.93
2022-12-18T15:13:31.515Z,6.10
2022-12-18T15:16:04.150Z,5.95
2022-12-18T15:18:35.084Z,6.40
2022-12-18T15:21:10.500Z,6.47
2022-12-18T15:23:50.478Z,6.03
2022-12-18T15:26:19.671Z,6.78
2022-12-18T15:28:52.878Z,7.35
2022-12-18T15:31:31.237Z,7.18
2022-12-18T15:34:01.945Z,6.80
2022-12-18T15:36:37.915Z,6.78
2022-12-18T15:39:06.817Z,7.20
2022-12-18T15:41:36.148Z,7.10
2022-12-18T15:44:04.516Z,6.85
2022-12-18T15:46:34.354Z,7.20
2022-12-18T15:49:02.996Z,7.30
2022-12-18T15:51:36.424Z,7.13
2022-12-18T15:54:05.924Z,6.95
2022-12-18T15:56:53.962Z,7.60
2022-12-18T15:59:32.677Z,7.30
2022-12-18T16:01:59.340Z,7.80
2022-12-18T16:04:29.692Z,7.40
2022-12-18T16:08:06.395Z,7.38
2022-12-18T16:09:52.746Z,7.80
2022-12-18T16:12:27.742Z,7.73
2022-12-18T16:14:54.286Z,8.52
2022-12-18T16:17:23.624Z,7.38
2022-12-18T16:19:50.502Z,7.65
2022-12-18T16:22:23.952Z,7.50
2022-12-18T16:24:54.941Z,7.43
2022-12-18T16:27:22.828Z,7.63
2022-12-18T16:29:49.600Z,9.02
2022-12-18T16:32:21.527Z,8.77
2022-12-18T16:34:48.528Z,8.30
2022-12-18T16:37:17.960Z,8.10
2022-12-18T16:39:54.066Z,7.78
2022-12-18T16:42:21.167Z,8.43
2022-12-18T16:44:52.618Z,7.50
2022-12-18T16:47:20.084Z,7.95
2022-12-18T16:49:52.968Z,8.27
2022-12-18T16:52:24.108Z,8.05
2022-12-18T16:54:53.709Z,7.90
2022-12-18T16:57:24.086Z,8.98
2022-12-18T16:59:52.432Z,8.32
2022-12-18T17:02:24.649Z,8.57
2022-12-18T17:04:55.014Z,8.85
2022-12-18T17:07:21.542Z,8.55
2022-12-18T17:09:51.979Z,8.18
2022-12-18T17:12:18.500Z,8.93
2022-12-18T17:14:47.495Z,8.80
2022-12-18T17:17:21.777Z,8.48
2022-12-18T17:19:49.282Z,8.77
2022-12-18T17:22:15.872Z,9.02
2022-12-18T17:24:42.479Z,9.15
2022-12-18T17:27:09.021Z,9.53
2022-12-18T17:29:43.899Z,8.70
2022-12-18T17:32:13.776Z,9.45
2022-12-18T17:34:40.846Z,8.65
2022-12-18T17:37:08.975Z,8.55
2022-12-18T17:39:35.696Z,8.97
2022-12-18T17:42:02.316Z,9.32
2022-12-18T17:44:28.832Z,8.18
2022-12-18T17:46:58.500Z,8.77
2022-12-18T17:49:24.971Z,9.18
2022-12-18T17:51:51.643Z,8.63
2022-12-18T17:54:18.074Z,8.77
2022-12-18T17:56:44.693Z,9.45
2022-12-18T17:59:11.382Z,9.75
2022-12-18T18:01:47.383Z,8.75
2022-12-18T18:04:15.621Z,8.93
2022-12-18T18:06:42.319Z,8.70
2022-12-18T18:09:16.158Z,9.73
2022-12-18T18:12:02.925Z,9.13
2022-12-18T18:14:29.798Z,9.70
2022-12-18T18:16:56.401Z,8.40
2022-12-18T18:19:25.510Z,9.60
2022-12-18T18:21:53.825Z,8.68
2022-12-18T18:24:26.115Z,9.45
2022-12-18T18:26:57.819Z,9.68
2022-12-18T18:29:26.993Z,9.37
2022-12-18T18:31:57.235Z,9.25
2022-12-18T18:34:30.270Z,8.85
2022-12-18T18:37:01.186Z,9.20
2022-12-18T18:39:28.201Z,8.80
2022-12-18T18:41:55.006Z,9.00
2022-12-18T18:44:25.611Z,8.57
2022-12-18T18:46:56.720Z,9.10
2022-12-18T18:49:27.557Z,10.27
2022-12-18T18:51:55.265Z,10.68
2022-12-18T18:54:24.603Z,9.30
2022-12-18T18:57:22.660Z,9.60
2022-12-18T18:59:37.990Z,9.02
2022-12-18T19:02:07.676Z,9.45
2022-12-18T19:04:34.569Z,10.30
2022-12-18T19:07:01.678Z,9.80
2022-12-18T19:09:28.812Z,9.00
2022-12-18T19:14:56.488Z,10.23
2022-12-18T19:17:29.564Z,9.70
2022-12-18T19:19:59.917Z,9.00
2022-12-18T19:22:26.386Z,9.13
2022-12-18T19:24:52.836Z,8.73
2022-12-18T19:27:19.299Z,9.05
2022-12-18T19:29:45.734Z,9.63
2022-12-18T19:32:12.408Z,9.97
2022-12-18T19:34:39.714Z,9.98
2022-12-18T19:37:06.418Z,8.35
2022-12-18T19:39:33.210Z,9.25
2022-12-18T19:41:59.788Z,8.15
2022-12-18T19:44:26.885Z,9.17
2022-12-18T19:46:53.511Z,9.18
2022-12-18T19:49:20.020Z,8.82
2022-12-18T19:51:47.676Z,9.63
2022-12-18T19:54:17.734Z,9.45
2022-12-18T19:56:45.739Z,9.83
2022-12-18T19:59:12.835Z,9.95
2022-12-18T20:01:39.933Z,9.55
2022-12-18T20:04:07.009Z,8.90
2022-12-18T20:06:55.625Z,10.27
2022-12-18T20:09:24.455Z,9.00
2022-12-18T20:11:51.693Z,9.48
2022-12-18T20:14:22.312Z,9.30
2022-12-18T20:16:50.955Z,8.23
2022-12-18T20:19:18.229Z,9.40
2022-12-18T20:21:45.722Z,9.00
2022-12-18T20:24:13.038Z,9.15
2022-12-18T20:26:40.590Z,8.95
2022-12-18T20:29:07.233Z,9.38
2022-12-18T20:31:36.721Z,10.00
2022-12-18T20:34:06.040Z,8.93
2022-12-18T20:36:34.258Z,10.07
2022-12-18T20:39:06.525Z,9.73
2022-12-18T20:41:38.099Z,9.48
2022-12-18T20:44:22.531Z,9.73
2022-12-18T20:47:05.747Z,8.93
2022-12-18T20:49:35.754Z,9.80
2022-12-18T20:52:04.566Z,8.90
2022-12-18T20:54:31.241Z,8.63
2022-12-18T20:57:01.508Z,9.43
2022-12-18T20:59:28.231Z,10.33
2022-12-18T21:01:55.458Z,9.98
2022-12-18T21:04:22.916Z,10.93
2022-12-18T21:06:59.239Z,9.52
2022-12-18T21:09:37.514Z,10.50
2022-12-18T21:12:43.943Z,9.33
2022-12-18T21:15:18.073Z,9.23
2022-12-18T21:17:51.602Z,10.50
2022-12-18T21:20:18.992Z,8.75
2022-12-18T21:22:48.139Z,10.75
2022-12-18T21:25:16.991Z,9.83
2022-12-18T21:27:45.517Z,9.45
2022-12-18T21:30:18.937Z,9.85
2022-12-18T21:32:48.805Z,9.85
2022-12-18T21:35:22.974Z,9.27
2022-12-18T21:37:51.908Z,10.17
2022-12-18T21:40:25.565Z,9.35
2022-12-18T21:43:13.375Z,9.63
2022-12-18T21:45:46.837Z,9.93
2022-12-18T21:50:59.782Z,10.37
2022-12-18T21:53:26.446Z,10.25
2022-12-18T21:56:02.071Z,11.05
2022-12-18T21:58:30.863Z,9.07
2022-12-18T22:01:12.928Z,10.98
2022-12-18T22:03:40.338Z,9.37
2022-12-18T22:06:16.770Z,9.40
2022-12-18T22:08:44.167Z,9.70
2022-12-18T22:11:17.058Z,10.20
2022-12-18T22:13:48.206Z,9.52
2022-12-18T22:16:17.497Z,9.87
2022-12-18T22:18:48.163Z,10.23
2022-12-18T22:21:30.348Z,9.57
2022-12-18T22:24:07.825Z,9.68
2022-12-18T22:26:40.893Z,9.82
2022-12-18T22:29:29.173Z,9.67
2022-12-18T22:32:02.173Z,10.25
2022-12-18T22:34:29.219Z,10.52
2022-12-18T22:36:58.285Z,10.13
2022-12-18T22:39:29.365Z,10.43
2022-12-18T22:42:10.255Z,10.17
2022-12-18T22:44:36.814Z,9.60
2022-12-18T22:47:07.044Z,10.13
2022-12-18T22:49:35.335Z,8.88
2022-12-18T22:52:03.508Z,10.38
2022-12-18T22:54:31.183Z,10.47
2022-12-18T22:57:03.168Z,10.07
2022-12-18T22:59:29.937Z,9.93
2022-12-18T23:01:59.596Z,9.73
2022-12-18T23:04:36.334Z,10.45
2022-12-18T23:07:06.776Z,10.47
2022-12-18T23:09:33.911Z,9.88
2022-12-18T23:12:01.341Z,10.48
2022-12-18T23:14:31.941Z,10.50
2022-12-18T23:17:10.307Z,10.10
2022-12-18T23:19:45.503Z,10.07
2022-12-18T23:22:24.596Z,9.27
2022-12-18T23:24:51.351Z,9.93
2022-12-18T23:27:21.149Z,10.50
2022-12-18T23:29:48.438Z,9.40
2022-12-18T23:32:25.155Z,10.27
2022-12-18T23:34:51.851Z,10.30
2022-12-18T23:37:49.950Z,10.50
2022-12-18T23:40:05.807Z,10.77
2022-12-18T23:42:35.312Z,10.43
2022-12-18T23:45:04.498Z,10.47
2022-12-18T23:47:51.074Z,9.88
2022-12-18T23:50:18.026Z,10.10
2022-12-18T23:52:44.588Z,10.60
2022-12-18T23:55:13.382Z,10.40
2022-12-18T23:57:39.990Z,10.20
